Time;durP1;ratioP1;P1;durP2;ratioP2;P2;SDS_P1;SDS_P2;PMS_P1;PMS_P2;Temp;Humidity;BMP_temperature;BMP_pressure;BME280_temperature;BME280_humidity;BME280_pressure;Samples;Min_cycle;Max_cycle;Signal;HPM_P1;HPM_P2
2023/10/29 00:00:34;;;;;;;50.15;33.92;;;13.00;99.90;;;;;;4841648;29;20026;-76
2023/10/29 00:03:00;;;;;;;50.75;32.97;;;12.90;99.90;;;;;;4842044;29;20494;-77
2023/10/29 00:05:26;;;;;;;41.65;30.38;;;12.90;99.90;;;;;;4842166;29;20029;-76
2023/10/29 00:07:52;;;;;;;41.35;24.30;;;12.90;99.90;;;;;;4853446;29;20386;-76
2023/10/29 00:10:18;;;;;;;35.42;22.60;;;12.90;99.90;;;;;;4842372;29;20054;-75
2023/10/29 00:12:44;;;;;;;38.10;21.35;;;12.90;99.90;;;;;;4841516;29;20038;-75
2023/10/29 00:15:10;;;;;;;30.98;20.83;;;13.00;99.90;;;;;;4841821;29;20037;-76
2023/10/29 00:17:36;;;;;;;34.15;19.75;;;13.00;99.90;;;;;;4841784;29;20467;-76
2023/10/29 00:20:06;;;;;;;36.40;22.13;;;13.10;99.90;;;;;;4841574;29;20049;-75
2023/10/29 00:22:32;;;;;;;34.58;20.58;;;13.10;99.90;;;;;;4841586;29;20056;-76
2023/10/29 00:24:58;;;;;;;36.20;19.33;;;13.10;99.90;;;;;;4844137;29;20037;-76
2023/10/29 00:27:24;;;;;;;34.05;20.65;;;13.20;99.90;;;;;;4841423;29;20037;-75
2023/10/29 00:29:52;;;;;;;33.10;19.88;;;13.20;99.90;;;;;;4841467;29;20038;-76
2023/10/29 00:32:21;;;;;;;37.20;21.15;;;13.20;99.90;;;;;;4825559;29;20490;-76
2023/10/29 00:34:47;;;;;;;34.80;22.13;;;13.10;99.90;;;;;;4840875;29;20014;-76
2023/10/29 00:37:14;;;;;;;35.15;22.33;;;13.10;99.90;;;;;;4841626;29;20406;-77
2023/10/29 00:39:40;;;;;;;37.40;23.25;;;13.00;99.90;;;;;;4841179;29;20046;-76
2023/10/29 00:42:09;;;;;;;42.28;24.55;;;13.00;99.90;;;;;;4841587;29;20041;-77
2023/10/29 00:44:35;;;;;;;39.20;23.33;;;12.90;99.90;;;;;;4824486;29;20026;-76
2023/10/29 00:47:00;;;;;;;34.03;20.75;;;12.90;99.90;;;;;;4841734;29;20037;-77
2023/10/29 00:49:26;;;;;;;35.95;20.25;;;12.90;99.90;;;;;;4824856;29;20030;-76
2023/10/29 00:51:52;;;;;;;36.95;21.75;;;12.90;99.90;;;;;;4824335;29;20046;-77
2023/10/29 00:54:18;;;;;;;31.13;18.98;;;13.00;99.90;;;;;;4843385;29;20034;-77
2023/10/29 00:56:44;;;;;;;31.98;20.38;;;12.90;99.90;;;;;;4834126;29;20691;-76
2023/10/29 00:59:14;;;;;;;43.80;25.17;;;12.90;99.90;;;;;;4853574;29;20034;-76
2023/10/29 01:01:41;;;;;;;23.02;15.15;;;12.90;99.90;;;;;;4846900;29;20113;-75
2023/10/29 01:04:07;;;;;;;30.58;18.05;;;12.90;99.90;;;;;;4830302;29;20032;-76
2023/10/29 01:06:38;;;;;;;31.30;17.25;;;12.70;99.90;;;;;;4846766;29;20101;-77
2023/10/29 01:09:06;;;;;;;30.45;17.45;;;12.70;99.90;;;;;;4831577;29;20061;-76
2023/10/29 01:11:32;;;;;;;27.80;16.88;;;12.70;99.90;;;;;;4830356;29;20029;-76
2023/10/29 01:13:58;;;;;;;27.95;15.55;;;12.70;99.90;;;;;;4830087;29;20041;-76
2023/10/29 01:16:24;;;;;;;24.02;15.20;;;12.70;99.90;;;;;;4847287;29;20038;-77
2023/10/29 01:18:50;;;;;;;24.23;14.90;;;12.80;99.90;;;;;;4829897;29;20548;-77
2023/10/29 01:21:16;;;;;;;28.30;15.73;;;12.80;99.90;;;;;;4847395;29;20038;-77
2023/10/29 01:23:42;;;;;;;26.70;16.50;;;12.70;99.90;;;;;;4847421;29;20033;-76
2023/10/29 01:26:08;;;;;;;27.05;14.18;;;12.70;99.90;;;;;;4847261;29;20406;-76
2023/10/29 01:28:33;;;;;;;14.45;8.50;;;12.70;99.90;;;;;;4830137;29;20069;-76
2023/10/29 01:31:00;;;;;;;19.95;9.25;;;12.70;99.90;;;;;;4847230;29;20026;-76
2023/10/29 01:33:26;;;;;;;17.92;8.68;;;12.70;99.90;;;;;;4846527;29;20026;-76
2023/10/29 01:35:53;;;;;;;27.42;13.00;;;12.80;99.90;;;;;;4847161;29;20544;-77
2023/10/29 01:38:18;;;;;;;19.25;10.50;;;12.80;99.90;;;;;;4851738;29;20182;-77
2023/10/29 01:40:44;;;;;;;11.18;6.57;;;12.70;99.90;;;;;;4854063;29;20459;-76
2023/10/29 01:43:10;;;;;;;15.02;7.75;;;12.70;99.90;;;;;;4830507;29;20046;-76
2023/10/29 01:45:38;;;;;;;15.10;7.25;;;12.70;99.90;;;;;;4829424;29;20105;-75
2023/10/29 01:48:05;;;;;;;16.73;6.75;;;12.70;99.90;;;;;;4841351;29;20030;-75
2023/10/29 01:50:30;;;;;;;14.48;6.63;;;12.70;99.90;;;;;;4853430;29;20037;-75
2023/10/29 01:52:57;;;;;;;15.68;7.22;;;12.70;99.90;;;;;;4830476;29;20116;-77
2023/10/29 01:55:22;;;;;;;12.05;6.07;;;12.70;99.90;;;;;;4846289;29;20033;-76
2023/10/29 01:57:49;;;;;;;12.70;7.00;;;12.70;99.90;;;;;;4848838;29;20100;-76
2023/10/29 02:00:15;;;;;;;16.33;7.97;;;12.70;99.90;;;;;;4830262;29;20026;-76
2023/10/29 02:02:41;;;;;;;15.52;7.30;;;12.70;99.90;;;;;;4829670;29;20041;-76
2023/10/29 02:05:07;;;;;;;20.65;8.48;;;12.70;99.90;;;;;;4830598;29;20042;-77
2023/10/29 02:07:33;;;;;;;16.65;6.63;;;12.70;99.90;;;;;;4834489;29;20112;-76
2023/10/29 02:09:59;;;;;;;18.30;8.10;;;12.70;99.90;;;;;;4829986;29;20144;-76
2023/10/29 02:12:27;;;;;;;12.35;5.90;;;12.70;99.90;;;;;;4839787;29;20479;-76
2023/10/29 02:14:53;;;;;;;9.52;4.22;;;12.80;99.90;;;;;;4843384;29;20038;-76
2023/10/29 02:17:19;;;;;;;10.38;4.68;;;12.80;99.90;;;;;;4826746;29;20052;-76
2023/10/29 02:19:45;;;;;;;9.40;3.83;;;12.90;99.90;;;;;;4842432;29;20386;-76
2023/10/29 02:22:11;;;;;;;8.45;3.50;;;13.00;99.90;;;;;;4850464;29;20174;-77
2023/10/29 02:24:37;;;;;;;10.10;3.53;;;13.00;99.90;;;;;;4831684;29;20034;-75
2023/10/29 02:27:03;;;;;;;9.57;3.47;;;13.00;99.90;;;;;;4842721;29;20038;-76
2023/10/29 02:29:29;;;;;;;6.88;3.22;;;13.00;99.90;;;;;;4843049;29;20384;-76
2023/10/29 02:31:55;;;;;;;12.55;4.40;;;12.90;99.90;;;;;;4827141;29;20046;-76
2023/10/29 02:34:21;;;;;;;8.10;3.78;;;12.90;99.90;;;;;;4843307;29;20098;-76
2023/10/29 02:36:47;;;;;;;10.07;4.53;;;12.90;99.90;;;;;;4826513;29;20418;-77
2023/10/29 02:39:13;;;;;;;11.93;4.10;;;12.80;99.90;;;;;;4825815;29;20038;-76
2023/10/29 02:41:39;;;;;;;7.20;3.33;;;12.90;99.90;;;;;;4826411;29;20037;-76
2023/10/29 02:44:05;;;;;;;9.75;3.15;;;12.90;99.90;;;;;;4842961;29;20034;-76
2023/10/29 02:46:31;;;;;;;7.20;3.50;;;12.90;99.90;;;;;;4843299;29;20034;-76
2023/10/29 02:48:56;;;;;;;8.00;3.53;;;12.90;99.90;;;;;;4825890;29;20054;-76
2023/10/29 02:51:22;;;;;;;8.07;2.97;;;12.90;99.90;;;;;;4826594;29;20508;-76
2023/10/29 02:53:48;;;;;;;9.10;3.25;;;12.90;99.90;;;;;;4826127;29;20705;-76
2023/10/29 02:56:14;;;;;;;10.43;3.38;;;12.80;99.90;;;;;;4827596;29;20118;-76
2023/10/29 02:58:40;;;;;;;9.70;3.60;;;12.80;99.90;;;;;;4842829;29;20487;-75
2023/10/29 03:01:07;;;;;;;11.65;4.75;;;12.80;99.90;;;;;;4825773;29;20145;-76
2023/10/29 03:03:37;;;;;;;12.73;4.82;;;12.70;99.90;;;;;;4826514;29;20135;-75
2023/10/29 03:06:08;;;;;;;21.50;9.95;;;12.70;99.90;;;;;;4842520;29;20049;-76
2023/10/29 03:08:35;;;;;;;19.55;8.10;;;12.60;99.90;;;;;;4826188;29;20030;-75
2023/10/29 03:11:02;;;;;;;17.58;9.00;;;12.50;99.90;;;;;;4825591;29;20098;-76
2023/10/29 03:13:28;;;;;;;22.00;7.90;;;12.50;99.90;;;;;;4842626;29;20044;-76
2023/10/29 03:15:55;;;;;;;18.23;7.90;;;12.40;99.90;;;;;;4842138;29;20030;-75
2023/10/29 03:18:21;;;;;;;10.90;5.68;;;12.30;99.90;;;;;;4825851;29;20076;-76
2023/10/29 03:20:48;;;;;;;12.93;5.43;;;12.30;99.90;;;;;;4825975;29;20064;-75
2023/10/29 03:23:13;;;;;;;13.82;6.15;;;12.30;99.90;;;;;;4825694;29;20046;-76
2023/10/29 03:25:39;;;;;;;10.15;5.15;;;12.30;99.90;;;;;;4825747;29;20029;-77
2023/10/29 03:28:05;;;;;;;11.27;6.18;;;12.20;99.90;;;;;;4825613;29;20030;-76
2023/10/29 03:30:32;;;;;;;13.10;5.43;;;12.20;99.90;;;;;;4842546;29;20034;-76
2023/10/29 03:32:57;;;;;;;11.30;5.45;;;12.10;99.90;;;;;;4825743;29;20038;-76
2023/10/29 03:35:26;;;;;;;10.95;5.57;;;12.10;99.90;;;;;;4842285;29;20026;-77
2023/10/29 03:37:52;;;;;;;14.00;5.18;;;12.00;99.90;;;;;;4841599;29;20121;-76
2023/10/29 03:40:18;;;;;;;14.05;6.40;;;11.90;99.90;;;;;;4825582;29;20030;-76
2023/10/29 03:42:44;;;;;;;12.40;5.30;;;11.90;99.90;;;;;;4825076;29;20518;-77
2023/10/29 03:45:10;;;;;;;12.18;6.85;;;12.00;99.90;;;;;;4825627;29;20383;-76
2023/10/29 03:47:35;;;;;;;9.13;4.88;;;12.00;99.90;;;;;;4842011;29;20033;-76
2023/10/29 03:50:02;;;;;;;13.38;6.00;;;12.00;99.90;;;;;;4825256;29;20036;-77
2023/10/29 03:52:28;;;;;;;10.27;5.82;;;11.90;99.90;;;;;;4825447;29;20411;-76
2023/10/29 03:54:54;;;;;;;12.95;5.65;;;12.00;99.90;;;;;;4842014;29;20018;-77
2023/10/29 03:57:20;;;;;;;10.68;5.30;;;11.90;99.90;;;;;;4841751;29;20478;-77
2023/10/29 03:59:46;;;;;;;14.23;7.32;;;11.90;99.90;;;;;;4841839;29;20034;-77
2023/10/29 04:02:12;;;;;;;48.22;24.73;;;11.80;99.90;;;;;;4841720;29;20040;-76
2023/10/29 04:04:40;;;;;;;21.58;8.75;;;11.80;99.90;;;;;;4825223;29;20363;-76
2023/10/29 04:07:06;;;;;;;13.20;6.35;;;11.90;99.90;;;;;;4841350;29;20094;-76
2023/10/29 04:09:32;;;;;;;13.25;5.70;;;11.90;99.90;;;;;;4841731;29;20094;-77
2023/10/29 04:11:59;;;;;;;18.52;9.18;;;11.90;99.90;;;;;;4841350;29;20034;-75
2023/10/29 04:14:25;;;;;;;19.00;7.85;;;11.90;99.90;;;;;;4841365;29;20022;-76
2023/10/29 04:16:51;;;;;;;15.55;8.63;;;11.90;99.90;;;;;;4841068;29;20053;-76
2023/10/29 04:19:16;;;;;;;17.77;9.30;;;11.80;99.90;;;;;;4841397;29;20038;-76
2023/10/29 04:21:42;;;;;;;19.10;11.60;;;11.80;99.90;;;;;;4840820;29;20118;-76
2023/10/29 04:24:08;;;;;;;17.98;10.35;;;11.80;99.90;;;;;;4841404;29;20046;-75
2023/10/29 04:26:34;;;;;;;17.00;9.82;;;11.70;99.90;;;;;;4841048;29;20402;-74
2023/10/29 04:29:00;;;;;;;17.25;9.35;;;11.70;99.90;;;;;;4841182;29;20030;-76
2023/10/29 04:31:26;;;;;;;18.08;11.18;;;11.80;99.90;;;;;;4840909;29;20097;-77
2023/10/29 04:33:52;;;;;;;17.08;8.98;;;11.80;99.90;;;;;;4841013;29;20034;-76
2023/10/29 04:36:19;;;;;;;17.40;8.25;;;11.70;99.90;;;;;;4840217;29;20475;-76
2023/10/29 04:38:45;;;;;;;16.83;8.90;;;11.70;99.90;;;;;;4841040;29;20053;-76
2023/10/29 04:41:11;;;;;;;12.25;6.32;;;11.70;99.90;;;;;;4840969;29;20068;-76
2023/10/29 04:43:37;;;;;;;9.27;5.00;;;11.70;99.90;;;;;;4840733;29;20082;-77
2023/10/29 04:46:03;;;;;;;13.10;6.53;;;11.70;99.90;;;;;;4840556;29;20397;-76
2023/10/29 04:48:29;;;;;;;14.68;6.97;;;11.70;99.90;;;;;;4840839;29;20022;-76
2023/10/29 04:50:55;;;;;;;11.65;5.45;;;11.80;99.90;;;;;;4840715;29;20116;-76
2023/10/29 04:53:21;;;;;;;15.70;5.95;;;11.80;99.90;;;;;;4840899;29;20037;-76
2023/10/29 04:55:46;;;;;;;9.48;4.97;;;11.80;99.90;;;;;;4841020;29;20471;-77
2023/10/29 04:58:12;;;;;;;15.75;6.25;;;11.90;99.90;;;;;;4840698;29;20081;-76
2023/10/29 05:00:38;;;;;;;11.40;5.00;;;11.90;99.90;;;;;;4840746;29;20410;-76
2023/10/29 05:03:04;;;;;;;7.57;4.00;;;11.90;99.90;;;;;;4841180;29;20022;-76
2023/10/29 05:05:30;;;;;;;7.70;4.25;;;11.90;99.90;;;;;;4840624;29;20038;-76
2023/10/29 05:07:56;;;;;;;7.65;3.60;;;11.90;99.90;;;;;;4840697;29;20053;-76
2023/10/29 05:10:25;;;;;;;9.27;4.55;;;11.80;99.90;;;;;;4840934;29;20042;-74
2023/10/29 05:12:50;;;;;;;10.82;5.43;;;11.90;99.90;;;;;;4840986;29;20034;-76
2023/10/29 05:15:17;;;;;;;9.63;4.47;;;11.90;99.90;;;;;;4840576;29;20057;-76
2023/10/29 05:17:43;;;;;;;9.77;4.32;;;11.90;99.90;;;;;;4841112;29;20034;-76
2023/10/29 05:20:10;;;;;;;11.65;4.53;;;11.80;99.90;;;;;;4840907;29;20033;-75
2023/10/29 05:22:37;;;;;;;14.80;5.82;;;11.90;99.90;;;;;;4841247;29;20037;-77
2023/10/29 05:25:03;;;;;;;10.35;4.70;;;12.00;99.90;;;;;;4840579;29;20026;-76
2023/10/29 05:27:29;;;;;;;9.25;4.03;;;12.20;99.90;;;;;;4840635;29;20034;-75
2023/10/29 05:29:54;;;;;;;20.85;6.72;;;12.30;99.90;;;;;;4841019;29;20116;-77
2023/10/29 05:32:21;;;;;;;8.75;4.00;;;12.20;99.90;;;;;;4840833;29;20518;-76
2023/10/29 05:34:46;;;;;;;8.30;4.53;;;12.20;99.90;;;;;;4840838;29;20033;-76
2023/10/29 05:37:12;;;;;;;9.60;4.15;;;12.20;99.90;;;;;;4840746;29;20424;-76
2023/10/29 05:39:38;;;;;;;11.90;3.85;;;12.30;99.90;;;;;;4841065;29;20112;-76
2023/10/29 05:42:04;;;;;;;10.73;4.78;;;12.20;99.90;;;;;;4840276;29;20036;-76
2023/10/29 05:44:31;;;;;;;8.88;4.38;;;12.20;99.90;;;;;;4840528;29;20030;-76
2023/10/29 05:46:56;;;;;;;12.70;4.38;;;12.20;99.90;;;;;;4841023;29;20042;-76
2023/10/29 05:49:22;;;;;;;9.20;4.32;;;12.20;99.90;;;;;;4830957;29;20502;-75
2023/10/29 05:51:49;;;;;;;9.68;4.72;;;12.20;99.90;;;;;;4843252;29;20098;-76
2023/10/29 05:54:15;;;;;;;9.10;3.95;;;12.30;99.90;;;;;;4843982;29;20033;-75
2023/10/29 05:56:41;;;;;;;10.77;3.90;;;12.40;99.90;;;;;;4843945;29;20458;-76
2023/10/29 05:59:07;;;;;;;12.60;3.72;;;12.50;99.90;;;;;;4844121;29;20197;-76
2023/10/29 06:01:33;;;;;;;5.85;2.97;;;12.50;99.90;;;;;;4839694;29;20104;-77
2023/10/29 06:03:59;;;;;;;8.98;3.85;;;12.60;99.90;;;;;;4844042;29;20066;-75
2023/10/29 06:06:25;;;;;;;8.43;3.85;;;12.50;99.90;;;;;;4842746;29;20129;-76
2023/10/29 06:08:50;;;;;;;8.30;4.10;;;12.60;99.90;;;;;;4832932;29;20038;-76
2023/10/29 06:11:16;;;;;;;9.05;3.92;;;12.60;99.90;;;;;;4834716;29;20090;-76
2023/10/29 06:13:44;;;;;;;9.43;4.18;;;12.60;99.90;;;;;;4839216;29;20067;-75
2023/10/29 06:16:10;;;;;;;8.27;3.80;;;12.60;99.90;;;;;;4837814;29;20026;-76
2023/10/29 06:18:36;;;;;;;6.63;3.47;;;12.90;99.90;;;;;;4835883;29;20035;-76
2023/10/29 06:21:02;;;;;;;6.05;3.30;;;13.00;99.90;;;;;;4834230;29;20501;-76
2023/10/29 06:23:28;;;;;;;7.22;3.45;;;13.20;99.90;;;;;;4840095;29;20033;-75
2023/10/29 06:25:54;;;;;;;10.27;3.53;;;13.40;99.90;;;;;;4841467;29;20026;-76
2023/10/29 06:28:19;;;;;;;12.52;4.28;;;13.50;99.90;;;;;;4841625;29;20029;-76
2023/10/29 06:30:45;;;;;;;9.18;4.13;;;13.70;99.90;;;;;;4841199;29;20022;-76
2023/10/29 06:33:11;;;;;;;9.18;4.97;;;13.80;99.90;;;;;;4838304;29;20452;-76
2023/10/29 06:35:38;;;;;;;17.35;4.72;;;13.90;99.90;;;;;;4840743;29;20026;-75
2023/10/29 06:38:04;;;;;;;11.80;5.03;;;14.10;99.90;;;;;;4839527;29;20046;-76
2023/10/29 06:40:30;;;;;;;9.15;4.78;;;14.20;99.90;;;;;;4841967;29;20022;-75
2023/10/29 06:42:55;;;;;;;8.02;4.78;;;14.30;99.90;;;;;;4836703;29;20026;-75
2023/10/29 06:45:21;;;;;;;10.05;4.78;;;14.20;99.90;;;;;;4842965;29;20117;-77
2023/10/29 06:47:47;;;;;;;8.20;4.47;;;14.40;99.90;;;;;;4832682;29;20034;-78
2023/10/29 06:50:13;;;;;;;13.35;4.43;;;14.60;99.90;;;;;;4828548;29;20037;-76
2023/10/29 06:52:39;;;;;;;16.08;6.25;;;14.70;99.90;;;;;;4831220;29;20410;-77
2023/10/29 06:55:06;;;;;;;7.93;4.82;;;14.90;99.90;;;;;;4827843;29;20033;-77
2023/10/29 06:57:32;;;;;;;14.65;5.57;;;15.00;99.90;;;;;;4829916;29;20053;-77
2023/10/29 06:59:59;;;;;;;12.77;5.85;;;15.10;99.90;;;;;;4825900;29;20101;-76
2023/10/29 07:02:25;;;;;;;13.48;6.40;;;15.20;99.90;;;;;;4829367;29;20439;-77
2023/10/29 07:04:51;;;;;;;12.60;6.07;;;15.40;99.90;;;;;;4834511;29;20036;-76
2023/10/29 07:07:17;;;;;;;12.35;6.10;;;15.50;99.90;;;;;;4841005;29;20033;-76
2023/10/29 07:09:43;;;;;;;12.23;5.95;;;15.50;99.90;;;;;;4840888;29;20096;-76
2023/10/29 07:12:09;;;;;;;10.65;6.15;;;;;;;;;;4838449;29;20555;-77
2023/10/29 07:14:35;;;;;;;15.57;6.30;;;15.80;99.90;;;;;;4833866;29;20026;-76
2023/10/29 07:17:01;;;;;;;13.70;7.03;;;16.00;99.90;;;;;;4830114;29;20094;-75
2023/10/29 07:19:27;;;;;;;31.27;6.90;;;16.10;99.90;;;;;;4829619;29;20041;-76
2023/10/29 07:21:53;;;;;;;17.70;6.95;;;16.30;99.90;;;;;;4835259;29;20034;-77
2023/10/29 07:24:19;;;;;;;19.05;7.32;;;16.40;99.90;;;;;;4842638;29;20473;-77
2023/10/29 07:26:44;;;;;;;13.80;7.07;;;16.50;99.90;;;;;;4842148;29;20030;-77
2023/10/29 07:29:11;;;;;;;17.98;6.63;;;16.50;99.90;;;;;;4841566;29;20387;-77
2023/10/29 07:31:37;;;;;;;11.68;5.75;;;16.70;99.90;;;;;;4831747;29;20042;-77
2023/10/29 07:34:03;;;;;;;12.43;5.95;;;16.90;99.90;;;;;;4842240;29;20037;-77
2023/10/29 07:36:29;;;;;;;14.65;5.55;;;17.00;99.90;;;;;;4829798;29;20038;-77
2023/10/29 07:38:55;;;;;;;13.65;5.57;;;17.20;99.90;;;;;;4831236;29;20037;-77
2023/10/29 07:41:21;;;;;;;10.15;5.10;;;17.30;99.90;;;;;;4826650;29;20471;-77
2023/10/29 07:43:48;;;;;;;13.95;5.28;;;17.40;99.90;;;;;;4830711;29;20036;-77
2023/10/29 07:46:14;;;;;;;15.57;4.85;;;17.50;99.90;;;;;;4840345;29;20403;-77
2023/10/29 07:48:40;;;;;;;12.07;5.72;;;17.70;99.90;;;;;;4835689;29;20507;-76
2023/10/29 07:51:07;;;;;;;9.88;5.18;;;17.80;99.90;;;;;;4830879;29;20060;-77
2023/10/29 07:53:33;;;;;;;11.02;5.57;;;17.90;99.90;;;;;;4833711;29;20022;-77
2023/10/29 07:56:09;;;;;;;12.95;5.70;;;17.90;99.90;;;;;;4841809;29;20117;-78
2023/10/29 07:58:36;;;;;;;9.18;4.72;;;17.90;99.90;;;;;;4831100;29;20075;-77
2023/10/29 08:01:03;;;;;;;14.35;5.90;;;18.10;99.90;;;;;;4841989;29;20018;-78
2023/10/29 08:03:29;;;;;;;13.52;5.55;;;17.90;99.90;;;;;;4841866;29;20041;-78
2023/10/29 08:05:54;;;;;;;13.85;4.65;;;17.90;99.90;;;;;;4839512;29;20017;-76
2023/10/29 08:08:20;;;;;;;7.32;4.20;;;18.20;99.90;;;;;;4841455;29;20102;-77
2023/10/29 08:10:46;;;;;;;9.25;4.72;;;18.30;99.90;;;;;;4835936;29;20371;-77
2023/10/29 08:13:12;;;;;;;10.48;3.55;;;18.50;99.90;;;;;;4854019;29;20043;-78
2023/10/29 08:15:38;;;;;;;16.65;4.72;;;18.60;99.90;;;;;;4842247;29;20051;-78
2023/10/29 08:18:04;;;;;;;21.77;9.55;;;18.70;99.90;;;;;;4841385;29;20398;-76
2023/10/29 08:20:32;;;;;;;21.63;6.38;;;18.90;99.90;;;;;;4826569;29;20022;-78
2023/10/29 08:22:58;;;;;;;17.17;8.30;;;19.10;99.90;;;;;;4825964;29;20046;-78
2023/10/29 08:25:24;;;;;;;17.17;7.13;;;;;;;;;;4841281;29;20386;-77
2023/10/29 08:27:50;;;;;;;11.80;5.72;;;19.40;99.90;;;;;;4841730;29;20083;-77
2023/10/29 08:30:16;;;;;;;14.85;6.03;;;19.40;99.90;;;;;;4840706;29;20427;-77
2023/10/29 08:32:41;;;;;;;12.10;6.70;;;19.50;99.90;;;;;;4840708;29;20034;-77
2023/10/29 08:35:08;;;;;;;8.90;5.35;;;19.70;99.90;;;;;;4829761;29;20034;-77
2023/10/29 08:37:34;;;;;;;14.65;5.05;;;19.80;99.90;;;;;;4825063;29;20091;-76
2023/10/29 08:40:01;;;;;;;15.52;5.45;;;19.90;99.90;;;;;;4841130;29;20046;-78
2023/10/29 08:42:29;;;;;;;9.82;4.10;;;20.10;99.90;;;;;;4839443;29;20033;-77
2023/10/29 08:44:56;;;;;;;8.57;3.85;;;20.20;99.90;;;;;;4832490;29;20028;-76
2023/10/29 08:47:23;;;;;;;13.52;4.70;;;20.50;99.90;;;;;;4841129;29;20030;-76
2023/10/29 08:49:50;;;;;;;8.25;3.88;;;20.50;99.90;;;;;;4827451;29;20121;-77
2023/10/29 08:52:17;;;;;;;9.25;3.28;;;20.70;99.90;;;;;;4834860;29;20042;-77
2023/10/29 08:54:44;;;;;;;8.23;3.42;;;20.80;99.80;;;;;;4836227;29;20086;-79
2023/10/29 08:57:10;;;;;;;9.60;3.00;;;20.90;99.40;;;;;;4841050;29;20054;-77
2023/10/29 08:59:36;;;;;;;6.50;2.63;;;21.00;97.80;;;;;;4840833;29;20086;-77
2023/10/29 09:02:02;;;;;;;10.43;4.00;;;21.20;96.40;;;;;;4841235;29;20467;-78
2023/10/29 09:04:28;;;;;;;14.35;5.60;;;21.10;97.80;;;;;;4841354;29;20033;-78
2023/10/29 09:06:54;;;;;;;10.38;3.90;;;21.10;97.00;;;;;;4841345;29;20066;-77
2023/10/29 09:09:20;;;;;;;8.93;4.72;;;21.20;97.60;;;;;;4840979;29;20126;-78
2023/10/29 09:11:46;;;;;;;9.35;4.18;;;21.20;97.10;;;;;;4841293;29;20475;-78
2023/10/29 09:14:13;;;;;;;14.32;4.55;;;21.20;96.50;;;;;;4840779;29;20105;-78
2023/10/29 09:16:40;;;;;;;9.10;4.13;;;21.30;96.40;;;;;;4841257;29;20073;-79
2023/10/29 09:19:06;;;;;;;14.52;4.40;;;21.50;96.80;;;;;;4824316;29;20042;-77
2023/10/29 09:21:31;;;;;;;14.25;5.78;;;21.60;96.40;;;;;;4842528;29;20074;-79
2023/10/29 09:23:57;;;;;;;15.95;9.32;;;21.80;96.00;;;;;;4844638;29;20026;-79
2023/10/29 09:26:23;;;;;;;41.22;31.92;;;21.90;95.80;;;;;;4844695;29;20038;-78
2023/10/29 09:28:49;;;;;;;26.42;17.80;;;21.90;94.70;;;;;;4846634;29;20030;-78
2023/10/29 09:31:22;;;;;;;67.78;55.90;;;;;;;;;;4846010;29;20124;-78
2023/10/29 09:33:48;;;;;;;57.83;45.55;;;22.10;94.50;;;;;;4847263;29;20044;-77
2023/10/29 09:36:13;;;;;;;49.47;38.92;;;22.00;93.80;;;;;;4847733;29;20026;-77
2023/10/29 09:38:40;;;;;;;58.70;46.75;;;22.00;95.00;;;;;;4846470;29;20030;-76
2023/10/29 09:41:07;;;;;;;49.28;39.03;;;22.20;94.80;;;;;;4830101;29;20025;-76
2023/10/29 09:43:42;;;;;;;61.50;50.03;;;22.30;94.80;;;;;;4846171;29;20057;-76
2023/10/29 09:46:10;;;;;;;47.10;36.97;;;22.40;94.70;;;;;;4831103;29;20045;-77
2023/10/29 09:48:37;;;;;;;36.65;28.70;;;22.60;95.10;;;;;;4847776;29;20101;-77
2023/10/29 09:51:05;;;;;;;22.00;13.07;;;22.90;94.60;;;;;;4845511;29;20439;-78
2023/10/29 09:53:32;;;;;;;10.75;6.18;;;22.30;92.20;;;;;;4835152;29;20030;-78
2023/10/29 09:55:58;;;;;;;17.33;9.93;;;22.30;93.40;;;;;;4845246;29;20371;-77
2023/10/29 09:58:26;;;;;;;43.88;32.53;;;22.50;93.80;;;;;;4828250;29;20375;-78
2023/10/29 10:00:52;;;;;;;69.53;56.83;;;22.60;92.50;;;;;;4839845;29;20022;-78
2023/10/29 10:03:19;;;;;;;28.35;20.23;;;22.70;93.80;;;;;;4853730;29;20509;-77
2023/10/29 10:05:48;;;;;;;10.95;4.97;;;;;;;;;;4845047;29;20022;-78
2023/10/29 10:08:14;;;;;;;8.20;2.72;;;22.80;92.40;;;;;;4844853;29;20026;-79
2023/10/29 10:10:43;;;;;;;5.65;2.50;;;22.80;93.50;;;;;;4845023;29;20053;-76
2023/10/29 10:13:10;;;;;;;7.45;2.70;;;23.00;95.30;;;;;;4845516;29;20110;-78
2023/10/29 10:15:37;;;;;;;6.07;2.47;;;23.00;93.10;;;;;;4844895;29;20037;-78
2023/10/29 10:18:05;;;;;;;4.88;1.98;;;23.20;93.00;;;;;;4845934;29;20069;-75
2023/10/29 10:20:35;;;;;;;6.22;3.00;;;23.30;96.50;;;;;;4829353;29;20038;-76
2023/10/29 10:23:02;;;;;;;4.93;2.00;;;23.20;92.50;;;;;;4845196;29;20082;-77
2023/10/29 10:25:30;;;;;;;7.20;2.25;;;23.20;91.30;;;;;;4845207;29;20064;-77
2023/10/29 10:27:58;;;;;;;12.48;2.60;;;23.30;93.10;;;;;;4845007;29;20037;-76
2023/10/29 10:30:37;;;;;;;8.55;2.30;;;23.30;92.00;;;;;;4847133;29;20013;-76
2023/10/29 10:33:20;;;;;;;6.85;2.42;;;23.40;91.90;;;;;;4843831;29;20040;-75
2023/10/29 10:35:51;;;;;;;6.95;2.15;;;23.40;91.40;;;;;;4832481;29;20040;-76
2023/10/29 10:38:20;;;;;;;6.78;2.63;;;23.20;91.60;;;;;;4851158;29;20391;-78
2023/10/29 10:40:47;;;;;;;3.55;1.77;;;23.40;92.40;;;;;;4844134;29;20379;-77
2023/10/29 10:43:18;;;;;;;6.40;2.33;;;23.30;91.10;;;;;;4840433;29;20036;-75
2023/10/29 10:45:50;;;;;;;9.98;2.63;;;23.40;90.90;;;;;;4837418;29;20030;-76
2023/10/29 10:48:17;;;;;;;8.25;2.28;;;23.20;90.20;;;;;;4849269;29;20033;-77
2023/10/29 10:50:45;;;;;;;6.00;2.00;;;23.30;90.10;;;;;;4862356;29;20538;-78
2023/10/29 10:53:16;;;;;;;6.25;1.90;;;23.40;88.00;;;;;;4844270;29;20038;-78
2023/10/29 10:55:43;;;;;;;6.53;3.38;;;23.30;83.40;;;;;;4843864;29;20033;-77
2023/10/29 10:58:12;;;;;;;9.85;2.55;;;23.50;88.90;;;;;;4838368;29;20061;-76
2023/10/29 11:00:39;;;;;;;6.63;2.50;;;23.50;85.10;;;;;;4848843;29;20053;-77
2023/10/29 11:03:08;;;;;;;8.48;2.42;;;23.50;84.50;;;;;;4844257;29;20030;-76
2023/10/29 11:05:34;;;;;;;7.05;2.20;;;23.60;82.20;;;;;;4843859;29;20512;-76
2023/10/29 11:08:01;;;;;;;3.45;1.70;;;23.70;81.20;;;;;;4843845;29;20022;-78
2023/10/29 11:10:28;;;;;;;5.63;2.47;;;23.80;83.10;;;;;;4827275;29;20061;-77
2023/10/29 11:12:54;;;;;;;9.52;2.35;;;23.80;83.10;;;;;;4844278;29;20026;-79
2023/10/29 11:15:22;;;;;;;6.88;2.78;;;23.80;84.00;;;;;;4826928;29;20029;-77
2023/10/29 11:18:01;;;;;;;8.60;3.42;;;23.80;84.40;;;;;;4843775;29;20037;-78
2023/10/29 11:20:39;;;;;;;6.25;2.20;;;23.70;83.10;;;;;;4843722;29;20060;-77
2023/10/29 11:23:27;;;;;;;5.18;1.83;;;23.70;84.40;;;;;;4843743;29;20029;-77
2023/10/29 11:26:27;;;;;;;7.53;2.22;;;23.80;84.30;;;;;;4843729;29;20038;-78
2023/10/29 11:28:54;;;;;;;6.93;3.10;;;23.80;83.00;;;;;;4831681;29;20042;-77
2023/10/29 11:31:25;;;;;;;7.03;1.80;;;23.80;83.30;;;;;;4842035;29;20034;-77
2023/10/29 11:33:57;;;;;;;8.93;2.50;;;23.70;80.70;;;;;;4843452;29;20026;-77
2023/10/29 11:36:33;;;;;;;4.30;1.67;;;23.70;81.30;;;;;;4843143;29;20034;-77
2023/10/29 11:39:18;;;;;;;6.15;2.03;;;23.70;78.90;;;;;;4843396;29;20478;-79
2023/10/29 11:41:47;;;;;;;4.45;1.90;;;23.70;79.20;;;;;;4831286;29;20033;-76
2023/10/29 11:44:19;;;;;;;7.07;2.25;;;23.70;80.80;;;;;;4843328;29;20038;-79
2023/10/29 11:47:02;;;;;;;4.45;2.28;;;23.80;80.90;;;;;;4843016;29;20034;-78
2023/10/29 11:49:50;;;;;;;11.07;2.33;;;;;;;;;;4843114;29;20101;-78
2023/10/29 11:52:17;;;;;;;9.05;2.83;;;23.80;81.80;;;;;;4843171;29;20044;-79
2023/10/29 11:54:43;;;;;;;10.23;5.22;;;23.80;81.80;;;;;;4855212;29;20025;-78
2023/10/29 11:57:09;;;;;;;9.32;2.85;;;23.80;82.60;;;;;;4855086;29;20045;-77
2023/10/29 11:59:53;;;;;;;6.63;2.13;;;23.80;80.80;;;;;;4843144;29;20034;-80
2023/10/29 12:02:20;;;;;;;5.22;2.38;;;23.80;81.10;;;;;;4842361;29;20068;-79
2023/10/29 12:04:45;;;;;;;2.88;1.67;;;24.00;82.90;;;;;;4843139;29;20065;-77
2023/10/29 12:07:24;;;;;;;5.78;2.00;;;23.90;79.40;;;;;;4842629;29;20060;-79
2023/10/29 12:09:59;;;;;;;3.83;1.85;;;23.70;77.00;;;;;;4841439;29;20062;-79
2023/10/29 12:12:25;;;;;;;4.47;1.83;;;23.80;77.10;;;;;;4827416;29;20071;-76
2023/10/29 12:14:51;;;;;;;3.75;1.80;;;23.70;78.40;;;;;;4809843;29;20034;-79
2023/10/29 12:17:17;;;;;;;7.57;1.90;;;23.80;76.40;;;;;;4837396;29;20030;-79
2023/10/29 12:19:45;;;;;;;3.40;1.38;;;23.90;77.40;;;;;;4825170;29;20030;-79
2023/10/29 12:22:20;;;;;;;4.35;1.88;;;23.90;76.40;;;;;;4831198;29;20034;-78
2023/10/29 12:24:55;;;;;;;4.90;1.90;;;24.00;76.50;;;;;;4842566;29;20030;-79
2023/10/29 12:27:22;;;;;;;5.80;1.85;;;24.00;76.50;;;;;;4850298;29;20120;-79
2023/10/29 12:29:49;;;;;;;2.25;1.30;;;24.00;76.00;;;;;;4846287;29;20026;-81
2023/10/29 12:32:17;;;;;;;4.82;1.65;;;23.90;76.00;;;;;;4841878;29;20125;-77
2023/10/29 12:35:01;;;;;;;5.07;1.33;;;23.90;74.50;;;;;;4842218;29;20380;-79
2023/10/29 12:37:29;;;;;;;2.47;1.20;;;24.00;74.10;;;;;;4842248;29;20128;-75
2023/10/29 12:39:59;;;;;;;2.65;1.20;;;24.00;72.90;;;;;;4821067;29;20030;-79